Meteorología y climatología de Navarra
Datos de la estación - Meteo Navarra

Estación de Getadar GN

Altitud 710 m.


Datos desde el 02/08/2020 hasta el 03/08/2020 en horario solar
Los datos son PROVISIONALES

Anterior Página 1 de 1 Siguiente Descargar: Formato para Excel 2000 o superior   Formato csv   Formato para OpenOffice Calc
Fecha Temperatura Humedad relativa Radiación global Insolación Precipitación Vel. viento 10 m Vel. viento 10 m Dir. viento 10 m
ºC % W/m² s l/m² m/s km/h º
02/08/2020 0:00 16.8 87 0.0 0 0.0 4.1 14.7 343
02/08/2020 0:10 16.9 87 0.0 0 0.0 4.9 17.5 347
02/08/2020 0:20 16.8 87 0.0 0 0.0 4.5 16.1 346
02/08/2020 0:30 16.7 86 0.0 0 0.0 5.1 18.4 341
02/08/2020 0:40 16.7 86 0.0 0 0.0 5.3 19.2 336
02/08/2020 0:50 16.6 86 0.0 0 0.0 6.9 24.7 330
02/08/2020 1:00 16.6 86 0.0 0 0.0 6.0 21.6 331
02/08/2020 1:10 16.5 87 0.0 0 0.0 6.2 22.1 340
02/08/2020 1:20 16.4 87 0.0 0 0.0 6.4 23.1 350
02/08/2020 1:30 16.2 87 0.0 0 0.0 5.8 20.8 353
02/08/2020 1:40 16.2 87 0.0 0 0.0 4.5 16.3 346
02/08/2020 1:50 16.1 86 0.0 0 0.0 3.9 14.1 335
02/08/2020 2:00 16.1 86 0.0 0 0.0 4.7 17.0 336
02/08/2020 2:10 16.1 85 0.0 0 0.0 3.9 14.1 340
02/08/2020 2:20 16.0 85 0.0 0 0.0 5.4 19.3 331
02/08/2020 2:30 16.0 85 0.0 0 0.0 6.3 22.6 332
02/08/2020 2:40 15.9 86 0.0 0 0.0 5.2 18.8 342
02/08/2020 2:50 15.8 86 0.0 0 0.0 4.5 16.3 348
02/08/2020 3:00 15.6 86 0.0 0 0.0 4.3 15.3 341
02/08/2020 3:10 15.5 85 0.0 0 0.0 4.9 17.5 347
02/08/2020 3:20 15.4 85 0.0 0 0.0 5.7 20.5 356
02/08/2020 3:30 15.4 85 0.0 0 0.0 7.4 26.7 358
02/08/2020 3:40 15.3 85 0.0 0 0.0 6.7 24.1 358
02/08/2020 3:50 15.4 85 0.0 0 0.0 5.7 20.4 356
02/08/2020 4:00 15.4 86 0.0 0 0.0 5.4 19.4 359
02/08/2020 4:10 15.3 87 0.0 0 0.0 6.2 22.4 3
02/08/2020 4:20 15.3 87 0.0 0 0.0 6.5 23.3 0
02/08/2020 4:30 15.3 88 0.0 0 0.0 4.7 16.7 351
02/08/2020 4:40 15.3 88 0.0 0 0.0 3.7 13.4 351
02/08/2020 4:50 15.3 88 0.0 0 0.0 5.4 19.5 355
02/08/2020 5:00 15.4 88 0.0 0 0.0 6.5 23.3 0
02/08/2020 5:10 15.4 87 14.1 0 0.0 5.5 19.8 352
02/08/2020 5:20 15.4 87 22.0 0 0.0 4.4 15.9 346
02/08/2020 5:30 15.5 86 29.0 0 0.0 5.3 18.9 341
02/08/2020 5:40 15.5 86 38.9 10 0.0 4.3 15.5 345
02/08/2020 5:50 15.4 86 56.3 72 0.0 5.1 18.5 349
02/08/2020 6:00 15.5 86 123.0 592 0.0 5.5 19.9 348
02/08/2020 6:10 15.6 86 153.1 600 0.0 4.7 16.8 347
02/08/2020 6:20 15.8 85 182.1 600 0.0 4.9 17.6 355
02/08/2020 6:30 15.8 84 211.9 600 0.0 6.0 21.7 2
02/08/2020 6:40 16.0 84 244.1 600 0.0 6.1 22.0 3
02/08/2020 6:50 16.4 82 276.1 600 0.0 6.4 22.9 2
02/08/2020 7:00 16.6 81 307.5 600 0.0 6.5 23.2 359
02/08/2020 7:10 16.8 80 338.0 600 0.0 7.0 25.2 356
02/08/2020 7:20 16.9 79 368.1 600 0.0 6.0 21.5 356
02/08/2020 7:30 17.2 78 399.9 600 0.0 6.2 22.1 358
02/08/2020 7:40 17.4 77 433.4 600 0.0 6.4 23.0 357
02/08/2020 7:50 17.6 76 472.3 600 0.0 6.3 22.6 352
02/08/2020 8:00 17.7 76 499.0 600 0.0 5.4 19.6 353
02/08/2020 8:10 18.0 74 537.9 600 0.0 5.7 20.7 3
02/08/2020 8:20 18.0 73 570.5 600 0.0 6.8 24.4 357
02/08/2020 8:30 18.5 71 606.7 600 0.0 6.4 23.1 353
02/08/2020 8:40 18.5 71 566.1 600 0.0 6.0 21.6 355
02/08/2020 8:50 18.5 71 590.5 600 0.0 7.0 25.1 355
02/08/2020 9:00 18.1 72 646.1 600 0.0 7.1 25.4 355
02/08/2020 9:10 18.5 70 699.8 600 0.0 7.0 25.2 358
02/08/2020 9:20 18.5 69 690.3 600 0.0 8.3 29.8 5
02/08/2020 9:30 18.6 69 720.3 600 0.0 8.0 28.7 355
02/08/2020 9:40 18.6 69 765.7 600 0.0 7.8 28.2 359
02/08/2020 9:50 19.0 67 748.8 600 0.0 7.2 25.8 355
02/08/2020 10:00 19.4 66 775.4 600 0.0 7.5 27.0 353
02/08/2020 10:10 19.0 67 745.3 600 0.0 7.4 26.5 350
02/08/2020 10:20 19.0 67 725.3 600 0.0 7.6 27.3 346
02/08/2020 10:30 19.5 65 779.8 600 0.0 7.6 27.5 356
02/08/2020 10:40 19.6 64 826.0 600 0.0 7.5 26.9 350
02/08/2020 10:50 20.3 62 889.0 600 0.0 5.7 20.4 360
02/08/2020 11:00 20.9 59 903.0 596 0.0 6.3 22.6 350
02/08/2020 11:10 20.6 60 912.0 600 0.0 6.4 23.1 357
02/08/2020 11:20 21.0 59 905.0 578 0.0 6.4 23.0 354
02/08/2020 11:30 20.7 60 944.0 600 0.0 7.3 26.4 351
02/08/2020 11:40 21.0 59 933.0 600 0.0 6.3 22.7 347
02/08/2020 11:50 20.8 59 955.0 600 0.0 7.4 26.7 0
02/08/2020 12:00 20.9 58 975.0 600 0.0 5.7 20.6 355
02/08/2020 12:10 20.8 58 970.0 600 0.0 6.7 24.2 351
02/08/2020 12:20 20.9 58 988.0 600 0.0 6.8 24.5 355
02/08/2020 12:30 21.2 56 930.0 586 0.0 6.8 24.6 352
02/08/2020 12:40 21.7 55 1001.0 600 0.0 6.2 22.3 356
02/08/2020 12:50 21.3 55 974.0 588 0.0 7.1 25.5 358
02/08/2020 13:00 21.2 56 981.0 600 0.0 6.7 24.2 343
02/08/2020 13:10 21.3 55 870.0 576 0.0 6.0 21.4 360
02/08/2020 13:20 21.2 55 898.0 600 0.0 7.1 25.5 346
02/08/2020 13:30 21.3 54 739.4 600 0.0 6.1 21.9 347
02/08/2020 13:40 21.0 54 758.0 600 0.0 8.0 28.7 345
02/08/2020 13:50 20.5 56 587.7 376 0.0 7.2 26.1 343
02/08/2020 14:00 20.0 59 375.6 0 0.0 6.3 22.6 344
02/08/2020 14:10 19.4 62 325.0 0 0.0 7.6 27.5 356
02/08/2020 14:20 19.1 60 329.6 0 0.0 7.0 25.3 351
02/08/2020 14:30 19.3 59 543.6 558 0.0 7.9 28.3 356
02/08/2020 14:40 19.7 57 615.6 600 0.0 7.6 27.3 353
02/08/2020 14:50 19.8 57 632.9 600 0.0 6.9 24.7 355
02/08/2020 15:00 19.8 57 565.3 600 0.0 8.0 28.9 356
02/08/2020 15:10 19.7 56 754.3 600 0.0 8.7 31.3 358
02/08/2020 15:20 19.6 57 541.9 600 0.0 8.5 30.6 354
02/08/2020 15:30 19.1 59 391.9 426 0.0 8.1 29.2 357
02/08/2020 15:40 18.8 60 375.6 592 0.0 9.4 33.7 0
02/08/2020 15:50 18.8 61 447.4 600 0.0 9.9 35.6 356
02/08/2020 16:00 18.8 60 309.6 112 0.0 9.0 32.2 355
02/08/2020 16:10 18.5 59 251.3 0 0.0 10.5 37.7 360
02/08/2020 16:20 18.3 59 259.0 0 0.0 9.4 33.7 357
02/08/2020 16:30 18.2 60 251.6 0 0.0 8.2 29.6 358
02/08/2020 16:40 18.0 61 249.7 0 0.0 8.5 30.4 4
02/08/2020 16:50 18.2 60 247.1 50 0.0 6.2 22.2 1
02/08/2020 17:00 18.1 61 218.3 0 0.0 6.9 24.7 353
02/08/2020 17:10 18.1 61 248.2 460 0.0 6.4 23.0 352
02/08/2020 17:20 18.1 62 285.3 600 0.0 6.6 23.9 352
02/08/2020 17:30 18.3 61 342.4 570 0.0 8.0 28.6 351
02/08/2020 17:40 18.0 62 195.2 284 0.0 7.4 26.6 353
02/08/2020 17:50 17.7 63 163.1 270 0.0 7.2 25.7 347
02/08/2020 18:00 17.4 65 178.9 496 0.0 8.7 31.2 350
02/08/2020 18:10 17.2 65 155.5 596 0.0 8.8 31.5 349
02/08/2020 18:20 17.0 65 122.0 442 0.0 8.9 31.9 352
02/08/2020 18:30 16.7 66 63.6 0 0.0 9.3 33.4 356
02/08/2020 18:40 16.4 67 52.1 0 0.0 9.8 35.4 355
02/08/2020 18:50 16.3 68 47.7 0 0.0 10.1 36.3 356
02/08/2020 19:00 16.1 69 41.3 498 0.0 7.7 27.7 357
02/08/2020 19:10 16.0 69 26.8 152 0.0 8.5 30.6 2
02/08/2020 19:20 15.9 70 14.6 0 0.0 8.1 29.1 0
02/08/2020 19:30 15.7 70 0.0 0 0.0 7.0 25.3 353
02/08/2020 19:40 15.6 70 0.0 0 0.0 7.0 25.3 349
02/08/2020 19:50 15.6 70 0.0 0 0.0 6.9 24.9 346
02/08/2020 20:00 15.5 70 0.0 0 0.0 7.7 27.5 341
02/08/2020 20:10 15.4 71 0.0 0 0.0 7.6 27.5 345
02/08/2020 20:20 15.3 70 0.0 0 0.0 7.9 28.3 342
02/08/2020 20:30 15.2 71 0.0 0 0.0 7.0 25.3 344
02/08/2020 20:40 15.1 72 0.0 0 0.0 6.5 23.4 340
02/08/2020 20:50 15.0 73 0.0 0 0.0 7.9 28.3 341
02/08/2020 21:00 14.9 74 0.0 0 0.0 7.4 26.7 345
02/08/2020 21:10 14.8 74 0.0 0 0.0 8.3 29.8 351
02/08/2020 21:20 14.7 75 0.0 0 0.0 7.5 26.9 351
02/08/2020 21:30 14.5 76 0.0 0 0.0 7.3 26.2 350
02/08/2020 21:40 14.4 77 0.0 0 0.0 6.9 24.8 349
02/08/2020 21:50 14.5 76 0.0 0 0.0 7.0 25.2 349
02/08/2020 22:00 14.6 75 0.0 0 0.0 6.1 22.1 345
02/08/2020 22:10 14.6 75 0.0 0 0.0 7.1 25.6 346
02/08/2020 22:20 14.5 76 0.0 0 0.0 7.1 25.4 341
02/08/2020 22:30 14.4 77 0.0 0 0.0 5.1 18.5 346
02/08/2020 22:40 14.4 77 0.0 0 0.0 5.2 18.8 337
02/08/2020 22:50 14.4 77 0.0 0 0.0 4.6 16.6 335
02/08/2020 23:00 14.4 77 0.0 0 0.0 5.2 18.5 358
02/08/2020 23:10 14.4 77 0.0 0 0.0 4.6 16.6 356
02/08/2020 23:20 14.4 78 0.0 0 0.0 5.0 18.0 349
02/08/2020 23:30 14.4 77 0.0 0 0.0 4.7 17.0 357
02/08/2020 23:40 14.3 76 0.0 0 0.0 4.9 17.5 342
02/08/2020 23:50 14.5 75 0.0 0 0.0 6.3 22.7 339
Anterior Página 1 de 1 Siguiente

NOTA: Tipo de datos según el color:
   - Valores diarios o 10 minutos correctos
   - Valores diarios calculados a partir de un número de datos 10 minutos menor que 144 y mayor que 120, o de un número de datos semihorarios menor que 48 y mayor que 40 (caso de las estaciones de INTIA y del Ministerio)
   - Valores diez minutos estimados


Contacto        Enlaces        Aviso legal